Time;durP1;ratioP1;P1;durP2;ratioP2;P2;SDS_P1;SDS_P2;PMS_P1;PMS_P2;Temp;Humidity;BMP_temperature;BMP_pressure;BME280_temperature;BME280_humidity;BME280_pressure;Samples;Min_cycle;Max_cycle;Signal;HPM_P1;HPM_P2
2023/03/01 00:00:15;;;;;;;;;;;;;;;1.10;75.25;102556.88;108940;1256;71957;-82
2023/03/01 00:03:02;;;;;;;;;;;;;;;1.12;75.29;102557.33;108792;1256;124597;-82
2023/03/01 00:05:29;;;;;;;;;;;;;;;1.12;75.35;102557.75;108892;1256;60106;-82
2023/03/01 00:07:56;;;;;;;;;;;;;;;1.13;75.40;102564.73;108859;1257;126640;-82
2023/03/01 00:10:23;;;;;;;;;;;;;;;1.14;75.44;102570.37;109010;1256;67086;-83
2023/03/01 00:12:49;;;;;;;;;;;;;;;1.13;75.44;102568.24;108971;1256;72140;-82
2023/03/01 00:15:16;;;;;;;;;;;;;;;1.14;75.29;102562.02;108764;1255;124445;-82
2023/03/01 00:17:43;;;;;;;;;;;;;;;1.13;75.42;102551.07;108885;1257;60143;-83
2023/03/01 00:20:10;;;;;;;;;;;;;;;1.14;75.50;102541.97;108801;1257;125065;-82
2023/03/01 00:22:37;;;;;;;;;;;;;;;1.12;75.52;102536.48;109006;1256;67134;-83
2023/03/01 00:25:04;;;;;;;;;;;;;;;1.12;75.44;102533.19;109010;1256;73275;-82
2023/03/01 00:27:32;;;;;;;;;;;;;;;1.13;75.57;102530.82;108738;1257;124788;-82
2023/03/01 00:29:59;;;;;;;;;;;;;;;1.13;75.50;102534.32;108977;1257;59718;-82
2023/03/01 00:32:26;;;;;;;;;;;;;;;1.13;75.63;102529.62;108780;1256;124846;-83
2023/03/01 00:34:56;;;;;;;;;;;;;;;1.14;75.53;102533.48;108887;1257;67986;-83
2023/03/01 00:37:23;;;;;;;;;;;;;;;1.13;75.64;102535.82;108826;1255;124480;-82
2023/03/01 00:39:50;;;;;;;;;;;;;;;1.11;75.67;102537.75;108858;1257;59235;-82
2023/03/01 00:42:17;;;;;;;;;;;;;;;1.09;75.68;102532.67;109004;1257;60100;-82
2023/03/01 00:44:43;;;;;;;;;;;;;;;1.07;75.65;102529.73;108778;1259;126095;-82
2023/03/01 00:47:10;;;;;;;;;;;;;;;1.06;75.73;102528.45;108854;1257;67101;-82
2023/03/01 00:49:37;;;;;;;;;;;;;;;1.05;75.82;102526.61;108766;1257;125434;-82
2023/03/01 00:52:04;;;;;;;;;;;;;;;1.04;75.84;102523.98;108966;1258;59330;-82
2023/03/01 00:54:31;;;;;;;;;;;;;;;1.06;75.91;102519.28;108871;1256;59459;-82
2023/03/01 00:56:58;;;;;;;;;;;;;;;1.06;76.05;102516.67;108812;1255;125531;-82
2023/03/01 00:59:25;;;;;;;;;;;;;;;1.08;76.17;102513.40;108933;1257;66731;-82
2023/03/01 01:01:52;;;;;;;;;;;;;;;1.10;76.16;102509.81;108888;1255;125024;-82
2023/03/01 01:04:19;;;;;;;;;;;;;;;1.12;76.20;102515.14;108980;1256;59534;-82
2023/03/01 01:06:45;;;;;;;;;;;;;;;1.13;76.41;102519.06;108998;1256;59498;-82
2023/03/01 01:09:16;;;;;;;;;;;;;;;1.15;76.52;102523.73;108772;1257;125791;-82
2023/03/01 01:11:44;;;;;;;;;;;;;;;1.16;76.35;102522.33;108940;1255;67624;-83
2023/03/01 01:14:11;;;;;;;;;;;;;;;1.18;76.28;102526.77;108766;1260;125093;-82
2023/03/01 01:16:38;;;;;;;;;;;;;;;1.20;76.33;102526.73;108845;1257;59534;-82
2023/03/01 01:19:05;;;;;;;;;;;;;;;1.21;76.36;102525.33;108812;1256;59907;-82
2023/03/01 01:21:32;;;;;;;;;;;;;;;1.21;76.32;102521.89;108785;1257;124412;-82
2023/03/01 01:23:58;;;;;;;;;;;;;;;1.22;76.48;102522.01;108918;1271;67890;-82
2023/03/01 01:26:26;;;;;;;;;;;;;;;1.22;76.45;102518.16;108664;1257;126079;-83
2023/03/01 01:28:53;;;;;;;;;;;;;;;1.21;76.75;102519.30;108846;1259;59348;-83
2023/03/01 01:31:23;;;;;;;;;;;;;;;1.21;76.48;102516.52;108753;1257;125050;-83
2023/03/01 01:33:50;;;;;;;;;;;;;;;1.21;76.68;102514.79;108849;1257;72292;-82
2023/03/01 01:36:17;;;;;;;;;;;;;;;1.19;76.59;102517.88;108805;1262;65887;-83
2023/03/01 01:38:44;;;;;;;;;;;;;;;1.18;76.71;102517.25;108688;1260;125035;-82
2023/03/01 01:41:11;;;;;;;;;;;;;;;1.16;76.67;102516.63;108918;1257;59038;-83
2023/03/01 01:43:40;;;;;;;;;;;;;;;1.15;76.96;102517.70;108923;1259;125246;-82
2023/03/01 01:46:28;;;;;;;;;;;;;;;1.13;76.95;102509.75;108811;1263;72810;-83
2023/03/01 01:48:57;;;;;;;;;;;;;;;1.12;77.04;102499.95;108805;1260;67131;-82
2023/03/01 01:51:25;;;;;;;;;;;;;;;1.11;76.96;102495.55;108757;1257;125470;-82
2023/03/01 01:53:53;;;;;;;;;;;;;;;1.11;77.26;102490.87;108814;1255;59400;-82
2023/03/01 01:56:20;;;;;;;;;;;;;;;1.10;77.33;102484.24;108774;1256;124437;-82
2023/03/01 01:58:47;;;;;;;;;;;;;;;1.10;77.27;102478.20;108875;1257;74708;-82
2023/03/01 02:01:14;;;;;;;;;;;;;;;1.10;77.31;102479.58;108948;1257;125021;-82
2023/03/01 02:03:41;;;;;;;;;;;;;;;1.10;77.33;102480.77;108964;1257;72809;-82
2023/03/01 02:06:12;;;;;;;;;;;;;;;1.08;77.42;102478.02;108770;1262;59453;-82
2023/03/01 02:08:41;;;;;;;;;;;;;;;1.07;77.49;102476.85;108639;1258;124691;-83
2023/03/01 02:11:08;;;;;;;;;;;;;;;1.05;77.35;102479.46;108843;1257;73130;-83
2023/03/01 02:13:35;;;;;;;;;;;;;;;1.04;77.45;102478.14;108736;1257;126840;-82
2023/03/01 02:16:03;;;;;;;;;;;;;;;1.03;77.70;102479.95;108829;1257;72676;-83
2023/03/01 02:18:30;;;;;;;;;;;;;;;1.03;77.69;102474.73;108682;1263;59439;-83
2023/03/01 02:21:12;;;;;;;;;;;;;;;1.01;77.65;102470.62;108661;1256;124442;-82
2023/03/01 02:23:39;;;;;;;;;;;;;;;1.01;77.58;102471.45;108944;1260;73831;-82
2023/03/01 02:26:08;;;;;;;;;;;;;;;1.01;77.78;102470.04;108813;1257;124995;-83
2023/03/01 02:28:35;;;;;;;;;;;;;;;1.01;77.91;102472.02;108758;1262;71416;-83
2023/03/01 02:33:48;;;;;;;;;;;;;;;1.03;78.00;102482.35;108838;1260;59854;-82
2023/03/01 02:36:16;;;;;;;;;;;;;;;1.05;78.13;102482.02;108833;1259;76057;-82
2023/03/01 02:38:43;;;;;;;;;;;;;;;1.05;78.06;102483.65;108651;1256;124563;-82
2023/03/01 02:41:14;;;;;;;;;;;;;;;1.06;78.13;102483.86;108745;1257;71382;-82
2023/03/01 02:43:41;;;;;;;;;;;;;;;1.07;78.20;102484.98;108669;1256;126829;-82
2023/03/01 02:46:09;;;;;;;;;;;;;;;1.08;78.28;102483.88;108757;1259;59872;-82
2023/03/01 02:48:42;;;;;;;;;;;;;;;1.09;78.21;102479.66;108951;1256;75221;-82
2023/03/01 02:51:25;;;;;;;;;;;;;;;1.11;78.15;102475.88;108690;1262;124694;-82
2023/03/01 02:54:04;;;;;;;;;;;;;;;1.12;78.09;102479.09;108848;1260;72707;-82
2023/03/01 02:56:31;;;;;;;;;;;;;;;1.12;78.15;102481.48;108596;1258;125536;-82
2023/03/01 02:59:00;;;;;;;;;;;;;;;1.11;78.33;102480.52;108682;1263;60553;-82
2023/03/01 03:01:36;;;;;;;;;;;;;;;1.12;78.33;102478.00;108574;1258;125365;-82
2023/03/01 03:04:04;;;;;;;;;;;;;;;1.11;78.34;102472.91;108755;1263;67109;-83
2023/03/01 03:06:31;;;;;;;;;;;;;;;1.11;78.23;102471.00;108782;1261;72984;-83
2023/03/01 03:08:57;;;;;;;;;;;;;;;1.09;78.41;102465.81;108681;1257;125850;-82
2023/03/01 03:11:24;;;;;;;;;;;;;;;1.09;78.42;102461.12;108818;1256;60413;-82
2023/03/01 03:13:51;;;;;;;;;;;;;;;1.07;78.49;102458.40;108871;1259;124606;-82
2023/03/01 03:16:19;;;;;;;;;;;;;;;1.06;78.52;102452.55;108798;1256;67048;-82
2023/03/01 03:18:45;;;;;;;;;;;;;;;1.05;78.65;102446.21;108902;1257;73123;-82
2023/03/01 03:21:12;;;;;;;;;;;;;;;1.03;78.70;102450.23;108617;1257;124397;-82
2023/03/01 03:23:39;;;;;;;;;;;;;;;1.01;78.56;102447.75;108809;1261;59357;-82
2023/03/01 03:26:06;;;;;;;;;;;;;;;0.98;78.68;102442.20;108673;1257;125210;-82
2023/03/01 03:28:33;;;;;;;;;;;;;;;0.96;78.60;102439.88;108783;1257;66702;-82
2023/03/01 03:31:03;;;;;;;;;;;;;;;0.92;78.95;102437.85;108739;1263;73169;-82
2023/03/01 03:33:30;;;;;;;;;;;;;;;0.90;78.80;102436.59;108728;1260;124566;-82
2023/03/01 03:35:57;;;;;;;;;;;;;;;0.86;78.86;102434.88;108770;1258;59526;-82
2023/03/01 03:38:24;;;;;;;;;;;;;;;0.84;79.00;102435.16;108665;1258;125063;-80
2023/03/01 03:40:52;;;;;;;;;;;;;;;0.81;79.21;102430.09;108865;1257;67233;-82
2023/03/01 03:43:20;;;;;;;;;;;;;;;0.78;79.18;102426.58;108694;1257;125790;-82
2023/03/01 03:45:47;;;;;;;;;;;;;;;0.77;79.34;102423.31;108871;1263;59364;-82
2023/03/01 03:48:14;;;;;;;;;;;;;;;0.75;79.36;102419.20;108792;1261;60085;-80
2023/03/01 03:50:41;;;;;;;;;;;;;;;0.74;79.42;102416.31;108749;1256;125078;-80
2023/03/01 03:53:10;;;;;;;;;;;;;;;0.73;79.57;102413.98;108792;1261;66962;-82
2023/03/01 03:55:38;;;;;;;;;;;;;;;0.71;79.71;102413.48;108605;1257;125431;-82
2023/03/01 03:58:06;;;;;;;;;;;;;;;0.70;79.64;102411.07;108721;1256;59885;-82
2023/03/01 04:00:34;;;;;;;;;;;;;;;0.67;79.80;102412.06;108724;1256;59265;-82
2023/03/01 04:03:01;;;;;;;;;;;;;;;0.66;79.85;102408.81;108623;1256;125251;-81
2023/03/01 04:05:28;;;;;;;;;;;;;;;0.65;79.86;102408.06;108943;1258;66096;-80
2023/03/01 04:08:01;;;;;;;;;;;;;;;0.65;79.90;102406.48;108702;1257;125278;-80
2023/03/01 04:10:32;;;;;;;;;;;;;;;0.63;80.09;102404.77;108862;1261;59356;-81
2023/03/01 04:12:59;;;;;;;;;;;;;;;0.63;80.06;102407.51;108937;1256;59422;-80
2023/03/01 04:15:26;;;;;;;;;;;;;;;0.63;80.35;102403.02;108600;1257;125523;-80
2023/03/01 04:17:53;;;;;;;;;;;;;;;0.62;80.44;102404.15;108805;1257;66131;-80
2023/03/01 04:20:24;;;;;;;;;;;;;;;0.63;80.48;102402.11;108695;1257;124979;-80
2023/03/01 04:22:57;;;;;;;;;;;;;;;0.62;80.54;102401.23;108792;1255;59381;-81
2023/03/01 04:25:24;;;;;;;;;;;;;;;0.63;80.65;102400.77;108718;1255;125555;-80
2023/03/01 04:27:51;;;;;;;;;;;;;;;0.62;80.67;102402.78;108994;1256;75285;-81
2023/03/01 04:30:18;;;;;;;;;;;;;;;0.62;80.71;102403.30;109013;1257;67060;-80
2023/03/01 04:32:44;;;;;;;;;;;;;;;0.62;80.87;102405.34;108751;1257;124452;-81
2023/03/01 04:35:11;;;;;;;;;;;;;;;0.61;80.98;102407.36;108940;1257;59361;-81
2023/03/01 04:37:38;;;;;;;;;;;;;;;0.61;80.94;102414.46;108734;1257;125243;-81
2023/03/01 04:40:16;;;;;;;;;;;;;;;0.61;80.89;102408.21;108813;1257;74228;-82
2023/03/01 04:42:43;;;;;;;;;;;;;;;0.61;80.82;102405.80;108831;1257;66696;-82
2023/03/01 04:45:12;;;;;;;;;;;;;;;0.62;80.94;102410.34;108842;1257;125489;-81
2023/03/01 04:47:40;;;;;;;;;;;;;;;0.61;80.83;102408.03;108919;1257;60081;-82
2023/03/01 04:50:07;;;;;;;;;;;;;;;0.61;80.89;102407.88;108631;1258;125133;-81
2023/03/01 04:52:35;;;;;;;;;;;;;;;0.60;81.02;102407.45;108767;1256;74186;-82
2023/03/01 04:55:02;;;;;;;;;;;;;;;0.59;81.01;102407.18;108959;1257;66892;-82
2023/03/01 04:57:29;;;;;;;;;;;;;;;0.60;81.11;102408.95;108770;1256;125590;-82
2023/03/01 04:59:56;;;;;;;;;;;;;;;0.58;81.15;102408.89;108945;1260;59202;-82
2023/03/01 05:02:23;;;;;;;;;;;;;;;0.58;81.19;102406.52;108802;1257;124607;-81
2023/03/01 05:04:50;;;;;;;;;;;;;;;0.57;81.19;102405.27;108882;1257;73095;-82
2023/03/01 05:07:19;;;;;;;;;;;;;;;0.57;81.31;102403.34;108724;1258;125301;-81
2023/03/01 05:09:46;;;;;;;;;;;;;;;0.57;81.22;102406.30;108893;1259;73069;-82
2023/03/01 05:12:13;;;;;;;;;;;;;;;0.55;81.12;102405.80;108788;1256;59487;-82
2023/03/01 05:14:40;;;;;;;;;;;;;;;0.55;81.38;102402.33;108730;1257;124894;-81
2023/03/01 05:17:07;;;;;;;;;;;;;;;0.53;81.55;102400.98;108854;1260;74813;-79
2023/03/01 05:19:34;;;;;;;;;;;;;;;0.53;81.38;102402.50;108648;1255;124965;-82
2023/03/01 05:22:01;;;;;;;;;;;;;;;0.55;81.41;102404.06;108859;1256;72169;-82
2023/03/01 05:24:28;;;;;;;;;;;;;;;0.55;81.56;102402.27;108668;1273;59161;-81
2023/03/01 05:26:55;;;;;;;;;;;;;;;0.55;81.45;102398.89;108765;1256;125426;-81
2023/03/01 05:29:24;;;;;;;;;;;;;;;0.55;81.51;102395.98;108975;1257;73341;-82
2023/03/01 05:31:53;;;;;;;;;;;;;;;0.56;81.49;102395.17;108956;1256;124545;-84
2023/03/01 05:34:23;;;;;;;;;;;;;;;0.58;81.57;102393.08;108814;1256;73271;-84
2023/03/01 05:36:52;;;;;;;;;;;;;;;0.59;81.47;102390.79;108861;1256;59510;-84
2023/03/01 05:39:23;;;;;;;;;;;;;;;0.60;81.43;102391.88;108104;1258;124278;-88
2023/03/01 05:41:51;;;;;;;;;;;;;;;0.60;81.52;102393.80;107891;1257;74700;-83
2023/03/01 05:44:18;;;;;;;;;;;;;;;0.61;81.66;102398.02;108055;1257;125733;-83
2023/03/01 05:46:46;;;;;;;;;;;;;;;0.62;81.57;102398.97;108065;1255;73264;-82
2023/03/01 05:49:13;;;;;;;;;;;;;;;0.63;81.73;102399.41;107818;1257;61136;-82
2023/03/01 05:51:41;;;;;;;;;;;;;;;0.65;81.79;102398.35;107927;1256;59910;-81
2023/03/01 05:54:08;;;;;;;;;;;;;;;0.66;81.75;102393.42;107907;1258;74496;-81
2023/03/01 05:56:36;;;;;;;;;;;;;;;0.68;81.77;102392.39;107959;1258;125462;-81
2023/03/01 05:59:03;;;;;;;;;;;;;;;0.70;81.83;102386.37;108061;1257;72396;-82
2023/03/01 06:01:30;;;;;;;;;;;;;;;0.73;81.90;102382.73;107991;1256;125880;-82
2023/03/01 06:03:57;;;;;;;;;;;;;;;0.77;81.90;102384.11;108026;1260;59601;-81
2023/03/01 06:06:24;;;;;;;;;;;;;;;0.82;81.97;102383.46;108045;1256;73346;-84
2023/03/01 06:08:51;;;;;;;;;;;;;;;0.86;81.93;102381.63;108676;1262;124886;-87
2023/03/01 06:11:18;;;;;;;;;;;;;;;0.90;81.95;102381.29;108159;1257;72746;-82
2023/03/01 06:13:45;;;;;;;;;;;;;;;0.94;81.77;102387.38;107840;1257;125196;-81
2023/03/01 06:16:13;;;;;;;;;;;;;;;0.98;81.97;102395.51;107989;1257;60156;-84
2023/03/01 06:18:40;;;;;;;;;;;;;;;1.03;82.04;102400.23;108198;1260;74228;-81
2023/03/01 06:21:07;;;;;;;;;;;;;;;1.07;81.81;102402.89;107962;1257;124987;-82
2023/03/01 06:23:34;;;;;;;;;;;;;;;1.10;81.80;102412.66;108189;1260;71152;-83
2023/03/01 06:26:00;;;;;;;;;;;;;;;1.12;81.78;102408.67;108189;1259;124501;-82
2023/03/01 06:28:27;;;;;;;;;;;;;;;1.15;81.60;102414.65;108094;1261;60868;-82
2023/03/01 06:30:54;;;;;;;;;;;;;;;1.20;81.78;102418.34;108080;1256;75138;-82
2023/03/01 06:33:23;;;;;;;;;;;;;;;1.25;81.78;102420.23;107818;1257;124692;-83
2023/03/01 06:35:50;;;;;;;;;;;;;;;1.31;81.64;102421.61;107713;1257;71970;-82
2023/03/01 06:38:18;;;;;;;;;;;;;;;1.39;81.81;102421.42;107822;1257;125181;-83
2023/03/01 06:40:51;;;;;;;;;;;;;;;1.51;81.80;102418.20;107596;1260;60905;-83
2023/03/01 06:43:18;;;;;;;;;;;;;;;1.63;81.80;102424.11;107481;1256;124447;-83
2023/03/01 06:45:45;;;;;;;;;;;;;;;1.76;81.77;102428.82;107637;1256;67054;-83
2023/03/01 06:48:12;;;;;;;;;;;;;;;1.90;81.71;102427.30;107451;1256;72643;-83
2023/03/01 06:50:39;;;;;;;;;;;;;;;2.03;81.52;102429.77;107412;1256;124975;-82
2023/03/01 06:53:06;;;;;;;;;;;;;;;2.15;81.52;102426.64;107565;1260;61642;-83
2023/03/01 06:55:33;;;;;;;;;;;;;;;2.23;81.14;102431.84;107702;1255;125167;-83
2023/03/01 06:58:01;;;;;;;;;;;;;;;2.23;81.01;102432.52;107860;1260;67042;-83
2023/03/01 07:00:28;;;;;;;;;;;;;;;2.24;80.85;102428.33;108074;1256;73254;-82
2023/03/01 07:02:54;;;;;;;;;;;;;;;2.22;80.57;102432.64;107684;1258;125234;-83
2023/03/01 07:05:21;;;;;;;;;;;;;;;2.24;80.71;102446.13;107807;1256;61278;-83
2023/03/01 07:07:48;;;;;;;;;;;;;;;2.27;80.75;102445.14;107575;1256;123933;-83
2023/03/01 07:10:16;;;;;;;;;;;;;;;2.22;80.41;102443.54;107481;1256;66003;-83
2023/03/01 07:12:43;;;;;;;;;;;;;;;2.18;80.47;102440.75;107664;1255;71427;-83
2023/03/01 07:15:10;;;;;;;;;;;;;;;2.16;80.45;102439.89;107739;1257;124384;-83
2023/03/01 07:17:37;;;;;;;;;;;;;;;2.14;80.50;102441.51;108002;1260;61215;-83
2023/03/01 07:20:04;;;;;;;;;;;;;;;2.17;80.47;102441.89;108609;1262;127163;-83
2023/03/01 07:22:31;;;;;;;;;;;;;;;2.22;80.47;102437.98;108756;1257;68123;-83
2023/03/01 07:24:58;;;;;;;;;;;;;;;2.24;80.37;102442.83;108734;1257;72845;-83
2023/03/01 07:27:25;;;;;;;;;;;;;;;2.26;80.29;102449.80;108735;1257;126179;-83
2023/03/01 07:29:52;;;;;;;;;;;;;;;2.29;80.36;102451.46;108811;1257;60145;-83
2023/03/01 07:33:00;;;;;;;;;;;;;;;2.33;80.38;102453.36;108644;1257;124658;-81
2023/03/01 07:35:27;;;;;;;;;;;;;;;2.38;80.45;102452.73;108978;1256;65661;-83
2023/03/01 07:37:54;;;;;;;;;;;;;;;2.44;80.37;102456.85;108752;1256;125697;-83
2023/03/01 07:40:21;;;;;;;;;;;;;;;2.49;80.35;102454.84;108937;1256;59099;-83
2023/03/01 07:42:48;;;;;;;;;;;;;;;2.55;80.41;102457.42;108975;1256;59077;-83
2023/03/01 07:45:14;;;;;;;;;;;;;;;2.61;80.34;102460.32;108749;1256;124603;-83
2023/03/01 07:47:41;;;;;;;;;;;;;;;2.68;80.37;102459.70;108742;1262;66418;-83
2023/03/01 07:50:09;;;;;;;;;;;;;;;2.76;80.16;102463.14;108826;1256;124817;-83
2023/03/01 07:52:36;;;;;;;;;;;;;;;2.83;80.10;102461.35;108811;1259;59233;-83
2023/03/01 07:55:03;;;;;;;;;;;;;;;2.92;80.14;102457.92;108734;1257;59508;-83
2023/03/01 07:57:30;;;;;;;;;;;;;;;3.01;80.07;102458.16;108720;1256;125662;-83
2023/03/01 07:59:56;;;;;;;;;;;;;;;3.09;80.03;102456.25;108986;1256;66485;-83
2023/03/01 08:02:23;;;;;;;;;;;;;;;3.18;79.80;102452.42;108683;1256;127025;-83
2023/03/01 08:04:50;;;;;;;;;;;;;;;3.25;79.82;102445.20;109046;1255;59645;-83
2023/03/01 08:07:17;;;;;;;;;;;;;;;3.32;79.68;102440.55;108779;1256;125235;-82
2023/03/01 08:09:44;;;;;;;;;;;;;;;3.38;79.48;102434.98;109006;1256;73489;-84
2023/03/01 08:12:11;;;;;;;;;;;;;;;3.43;79.50;102432.98;108911;1256;66763;-83
2023/03/01 08:14:38;;;;;;;;;;;;;;;3.51;79.25;102435.48;108682;1257;125106;-83
2023/03/01 08:17:05;;;;;;;;;;;;;;;3.56;79.15;102435.00;108914;1257;59452;-83
2023/03/01 08:19:33;;;;;;;;;;;;;;;3.60;79.07;102433.81;108873;1255;124395;-83
2023/03/01 08:22:01;;;;;;;;;;;;;;;3.65;78.87;102432.66;108991;1256;73953;-84
2023/03/01 08:24:28;;;;;;;;;;;;;;;3.70;78.96;102428.68;108836;1255;66506;-83
2023/03/01 08:26:56;;;;;;;;;;;;;;;3.75;78.79;102425.27;108947;1256;123725;-84
2023/03/01 08:29:24;;;;;;;;;;;;;;;3.80;78.81;102426.02;108801;1257;59304;-83
2023/03/01 08:31:51;;;;;;;;;;;;;;;3.85;78.61;102432.85;108651;1257;123894;-83
2023/03/01 08:34:18;;;;;;;;;;;;;;;3.88;78.53;102433.96;108933;1254;73329;-83
2023/03/01 08:36:45;;;;;;;;;;;;;;;3.91;78.49;102434.33;108861;1257;67054;-83
2023/03/01 08:39:13;;;;;;;;;;;;;;;3.95;78.37;102439.66;108695;1257;125968;-83
2023/03/01 08:41:40;;;;;;;;;;;;;;;4.01;78.47;102441.52;108838;1256;59371;-83
2023/03/01 08:44:07;;;;;;;;;;;;;;;4.06;78.43;102442.48;108922;1255;124988;-83
2023/03/01 08:46:38;;;;;;;;;;;;;;;4.11;78.03;102441.12;108932;1256;74225;-83
2023/03/01 08:49:06;;;;;;;;;;;;;;;4.15;78.08;102437.28;108902;1255;65616;-83
2023/03/01 08:51:36;;;;;;;;;;;;;;;4.21;77.91;102439.10;108757;1257;124693;-83
2023/03/01 08:54:04;;;;;;;;;;;;;;;4.26;77.78;102433.09;108846;1257;59072;-83
2023/03/01 08:56:30;;;;;;;;;;;;;;;4.30;77.74;102421.93;108762;1256;125337;-84
2023/03/01 08:58:57;;;;;;;;;;;;;;;4.38;77.78;102422.34;109059;1255;73397;-83
2023/03/01 09:01:24;;;;;;;;;;;;;;;4.46;77.65;102416.04;108991;1255;125401;-83
2023/03/01 09:03:51;;;;;;;;;;;;;;;4.53;77.44;102421.59;109031;1256;72440;-81
2023/03/01 09:06:18;;;;;;;;;;;;;;;4.58;77.41;102421.27;108779;1263;59355;-83
2023/03/01 09:08:47;;;;;;;;;;;;;;;4.65;77.35;102417.44;108776;1256;124718;-83
2023/03/01 09:11:15;;;;;;;;;;;;;;;4.74;77.37;102421.79;108822;1256;74724;-83
2023/03/01 09:13:46;;;;;;;;;;;;;;;4.81;77.24;102419.17;108818;1256;126226;-83
2023/03/01 09:16:13;;;;;;;;;;;;;;;4.88;77.08;102420.01;108832;1256;73272;-83
2023/03/01 09:18:40;;;;;;;;;;;;;;;4.94;77.00;102420.66;108876;1257;59514;-82
2023/03/01 09:21:08;;;;;;;;;;;;;;;5.01;76.93;102423.08;108743;1262;124995;-82
2023/03/01 09:23:38;;;;;;;;;;;;;;;5.06;76.83;102424.48;108984;1256;74553;-83
2023/03/01 09:26:09;;;;;;;;;;;;;;;5.09;76.58;102423.50;108669;1263;124918;-82
2023/03/01 09:28:36;;;;;;;;;;;;;;;5.12;76.56;102423.16;108820;1256;71283;-82
2023/03/01 09:31:03;;;;;;;;;;;;;;;5.14;76.44;102417.24;109024;1255;58791;-82
2023/03/01 09:33:32;;;;;;;;;;;;;;;5.18;76.34;102420.48;108721;1256;123309;-83
2023/03/01 09:35:59;;;;;;;;;;;;;;;5.21;76.23;102414.85;108780;1257;74798;-83
2023/03/01 09:38:26;;;;;;;;;;;;;;;5.25;76.10;102417.73;108740;1256;124938;-83
2023/03/01 09:40:53;;;;;;;;;;;;;;;5.27;76.07;102418.78;108708;1256;244470;-83
2023/03/01 09:43:38;;;;;;;;;;;;;;;5.31;75.92;102420.57;108795;1256;124612;-82
2023/03/01 09:46:06;;;;;;;;;;;;;;;5.35;75.97;102418.81;108926;1256;59144;-83
2023/03/01 09:48:36;;;;;;;;;;;;;;;5.41;75.83;102419.21;108780;1262;75263;-83
2023/03/01 09:51:03;;;;;;;;;;;;;;;5.44;75.72;102414.05;108711;1259;124538;-82
2023/03/01 09:53:31;;;;;;;;;;;;;;;5.48;75.68;102412.59;108751;1256;72706;-83
2023/03/01 09:56:22;;;;;;;;;;;;;;;5.51;75.43;102408.33;108691;1256;125074;-83
2023/03/01 09:58:56;;;;;;;;;;;;;;;5.57;75.56;102404.38;108854;1256;59380;-83
2023/03/01 10:01:31;;;;;;;;;;;;;;;5.64;75.41;102407.79;108805;1260;125219;-82
2023/03/01 10:04:10;;;;;;;;;;;;;;;5.67;75.16;102405.94;108757;1257;66568;-82
2023/03/01 10:06:37;;;;;;;;;;;;;;;5.73;75.03;102407.45;108813;1256;74349;-83
2023/03/01 10:09:09;;;;;;;;;;;;;;;5.78;74.91;102412.64;108741;1255;125200;-83
2023/03/01 10:11:37;;;;;;;;;;;;;;;5.83;74.87;102414.55;108890;1255;59459;-82
2023/03/01 10:14:22;;;;;;;;;;;;;;;5.88;74.61;102419.08;108680;1256;123295;-83
2023/03/01 10:17:12;;;;;;;;;;;;;;;5.90;74.38;102416.30;108945;1270;67427;-83
2023/03/01 10:19:43;;;;;;;;;;;;;;;5.95;74.33;102419.27;108740;1257;124817;-83
2023/03/01 10:22:13;;;;;;;;;;;;;;;5.94;74.04;102416.37;108940;1256;59393;-83
2023/03/01 10:24:40;;;;;;;;;;;;;;;5.91;73.86;102412.03;108819;1260;59875;-83
2023/03/01 10:27:09;;;;;;;;;;;;;;;5.91;73.98;102412.00;108850;1256;124935;-83
2023/03/01 10:29:44;;;;;;;;;;;;;;;5.93;73.93;102415.48;108965;1256;66776;-83
2023/03/01 10:32:11;;;;;;;;;;;;;;;5.95;73.92;102411.96;108848;1270;124648;-83
2023/03/01 10:34:38;;;;;;;;;;;;;;;6.00;73.87;102410.89;108792;1256;59963;-82
2023/03/01 10:37:09;;;;;;;;;;;;;;;6.05;73.92;102408.63;108826;1256;60583;-81
2023/03/01 10:39:36;;;;;;;;;;;;;;;6.10;73.82;102405.00;108731;1256;125837;-83
2023/03/01 10:42:04;;;;;;;;;;;;;;;6.16;73.73;102407.66;108825;1256;67537;-83
2023/03/01 10:44:51;;;;;;;;;;;;;;;6.20;73.67;102405.16;108815;1255;123691;-83
2023/03/01 10:47:23;;;;;;;;;;;;;;;6.26;73.58;102406.75;108875;1257;59508;-83
2023/03/01 10:49:59;;;;;;;;;;;;;;;6.31;73.63;102401.75;108630;1262;124554;-83
2023/03/01 10:52:28;;;;;;;;;;;;;;;6.36;73.38;102398.61;108771;1257;73339;-83
2023/03/01 10:55:04;;;;;;;;;;;;;;;6.39;73.24;102400.90;108881;1257;66679;-83
2023/03/01 10:57:38;;;;;;;;;;;;;;;6.39;73.07;102402.13;108742;1257;124959;-83
2023/03/01 11:00:16;;;;;;;;;;;;;;;6.40;73.12;102396.45;108788;1256;59452;-83
2023/03/01 11:02:43;;;;;;;;;;;;;;;6.46;73.15;102392.63;108725;1256;125439;-84
2023/03/01 11:08:36;;;;;;;;;;;;;;;6.49;72.60;102395.96;108830;1256;125054;-83
2023/03/01 11:11:12;;;;;;;;;;;;;;;6.48;72.60;102396.27;108951;1255;71383;-83
2023/03/01 11:13:53;;;;;;;;;;;;;;;6.50;72.68;102390.98;108699;1256;124963;-83
2023/03/01 11:16:31;;;;;;;;;;;;;;;6.53;72.46;102392.55;108939;1255;59391;-83
2023/03/01 11:19:10;;;;;;;;;;;;;;;6.53;72.36;102394.49;108840;1256;75120;-83
2023/03/01 11:21:38;;;;;;;;;;;;;;;6.53;72.24;102388.73;108709;1270;124044;-83
2023/03/01 11:24:06;;;;;;;;;;;;;;;6.53;72.23;102393.30;108824;1256;72104;-81
2023/03/01 11:26:34;;;;;;;;;;;;;;;6.54;72.18;102387.08;108749;1260;125623;-81
2023/03/01 11:29:02;;;;;;;;;;;;;;;6.57;72.25;102385.01;108731;1262;60102;-82
2023/03/01 11:31:29;;;;;;;;;;;;;;;6.59;72.14;102380.09;108717;1256;124402;-82
2023/03/01 11:34:16;;;;;;;;;;;;;;;6.60;72.02;102382.79;108865;1257;65447;-81
2023/03/01 11:36:54;;;;;;;;;;;;;;;6.61;71.98;102376.92;108758;1256;73334;-82
2023/03/01 11:39:31;;;;;;;;;;;;;;;6.62;72.11;102374.89;108737;1270;125527;-83
2023/03/01 11:42:06;;;;;;;;;;;;;;;6.66;72.25;102370.79;108897;1256;59378;-82
2023/03/01 11:44:33;;;;;;;;;;;;;;;6.69;72.06;102368.88;108797;1257;126319;-82
2023/03/01 11:47:12;;;;;;;;;;;;;;;6.69;71.88;102368.67;108840;1256;67609;-82
2023/03/01 11:50:08;;;;;;;;;;;;;;;6.64;71.65;102366.80;108898;1270;125920;-81
2023/03/01 11:52:38;;;;;;;;;;;;;;;6.61;71.73;102366.11;108905;1255;59850;-82
2023/03/01 11:55:12;;;;;;;;;;;;;;;6.60;71.70;102370.73;108870;1256;59963;-81
2023/03/01 11:57:44;;;;;;;;;;;;;;;6.58;71.61;102369.24;108887;1254;74511;-82
2023/03/01 12:00:17;;;;;;;;;;;;;;;6.59;71.57;102369.43;108882;1260;68380;-82
2023/03/01 12:02:54;;;;;;;;;;;;;;;6.60;71.69;102368.83;108775;1256;124601;-81
2023/03/01 12:05:21;;;;;;;;;;;;;;;6.62;71.58;102375.23;108888;1256;60122;-82
2023/03/01 12:07:52;;;;;;;;;;;;;;;6.65;71.74;102375.41;108771;1256;124939;-81
2023/03/01 12:10:19;;;;;;;;;;;;;;;6.67;71.47;102380.42;108670;1256;75051;-82
2023/03/01 12:12:50;;;;;;;;;;;;;;;6.66;71.56;102373.38;108894;1256;65795;-82
2023/03/01 12:15:17;;;;;;;;;;;;;;;6.68;71.61;102372.48;108684;1256;125344;-82
2023/03/01 12:17:59;;;;;;;;;;;;;;;6.69;71.41;102376.91;108974;1256;59323;-82
2023/03/01 12:20:28;;;;;;;;;;;;;;;6.66;71.16;102373.00;108766;1257;125729;-82
2023/03/01 12:23:13;;;;;;;;;;;;;;;6.64;71.35;102368.88;108992;1256;73414;-82
2023/03/01 12:25:52;;;;;;;;;;;;;;;6.65;71.36;102366.88;108894;1256;124104;-82
2023/03/01 12:28:23;;;;;;;;;;;;;;;6.64;71.21;102364.02;108949;1256;71241;-82
2023/03/01 12:30:53;;;;;;;;;;;;;;;6.62;71.24;102363.86;108761;1256;59344;-82
2023/03/01 12:33:32;;;;;;;;;;;;;;;6.60;71.17;102365.68;108611;1262;124313;-82
2023/03/01 12:36:22;;;;;;;;;;;;;;;6.59;71.19;102365.30;108680;1257;73224;-82
2023/03/01 12:38:50;;;;;;;;;;;;;;;6.60;71.01;102364.61;108721;1256;125460;-82
2023/03/01 12:41:20;;;;;;;;;;;;;;;6.56;70.80;102358.05;108819;1256;72371;-81
2023/03/01 12:44:05;;;;;;;;;;;;;;;6.53;70.83;102357.21;108780;1256;125073;-82
2023/03/01 12:46:36;;;;;;;;;;;;;;;6.49;70.64;102351.01;108923;1256;60183;-82
2023/03/01 12:49:16;;;;;;;;;;;;;;;6.44;70.59;102350.83;108852;1256;75658;-81